createdAt,value
2023-01-15T00:02:18.106Z,99966.84
2023-01-15T00:04:44.604Z,99959.94
2023-01-15T00:07:11.019Z,99958.25
2023-01-15T00:09:37.455Z,99959.81
2023-01-15T00:12:04.221Z,99965.16
2023-01-15T00:14:30.631Z,99965.16
2023-01-15T00:16:57.020Z,99968.44
2023-01-15T00:19:23.435Z,99964.97
2023-01-15T00:21:49.928Z,99967.66
2023-01-15T00:24:35.117Z,99960.75
2023-01-15T00:27:19.920Z,99961.63
2023-01-15T00:29:46.461Z,99965.16
2023-01-15T00:32:12.827Z,99959.94
2023-01-15T00:34:39.271Z,99953.78
2023-01-15T00:37:05.823Z,99964.31
2023-01-15T00:39:33.385Z,99958.06
2023-01-15T00:41:59.816Z,99957.31
2023-01-15T00:44:26.220Z,99965.16
2023-01-15T00:46:52.668Z,99957.97
2023-01-15T00:49:19.171Z,99958.06
2023-01-15T00:51:45.577Z,99953.66
2023-01-15T00:54:11.965Z,99958.06
2023-01-15T00:56:38.342Z,99956.38
2023-01-15T00:59:05.716Z,99965.16
2023-01-15T01:01:32.863Z,99958.25
2023-01-15T01:03:59.700Z,99961.72
2023-01-15T01:06:26.856Z,99957.22
2023-01-15T01:08:53.661Z,99963.47
2023-01-15T01:11:23.946Z,99965.34
2023-01-15T01:13:50.405Z,99955.72
2023-01-15T01:16:35.905Z,99952.28
2023-01-15T01:19:06.103Z,99954.97
2023-01-15T01:21:32.789Z,99961.97
2023-01-15T01:24:00.352Z,99952.66
2023-01-15T01:26:28.073Z,99965.88
2023-01-15T01:28:55.224Z,99982.22
2023-01-15T01:31:22.527Z,99979.63
2023-01-15T01:33:50.624Z,99964.03
2023-01-15T01:36:17.368Z,99975.31
2023-01-15T01:38:43.867Z,99964.97
2023-01-15T01:41:10.236Z,99978.13
2023-01-15T01:43:53.730Z,99985.97
2023-01-15T01:46:20.161Z,99983.44
2023-01-15T01:48:49.097Z,99983.44
2023-01-15T01:51:15.985Z,99987.91
2023-01-15T01:53:42.530Z,99988.84
2023-01-15T01:56:11.590Z,99989.78
2023-01-15T01:58:39.429Z,99997.63
2023-01-15T02:01:06.386Z,99993.22
2023-01-15T02:03:38.146Z,99989.03
2023-01-15T02:06:08.693Z,99987.34
2023-01-15T02:08:35.348Z,99976.06
2023-01-15T02:11:02.002Z,99969.97
2023-01-15T02:13:47.011Z,99974.47
2023-01-15T02:16:34.852Z,99982.31
2023-01-15T02:19:16.289Z,99972.69
2023-01-15T02:21:56.243Z,99970.19
2023-01-15T02:25:05.935Z,99966.81
2023-01-15T02:27:33.137Z,99968.50
2023-01-15T02:30:27.210Z,99960.75
2023-01-15T02:33:01.102Z,99964.38
2023-01-15T02:35:34.888Z,99975.75
2023-01-15T02:38:06.971Z,99969.72
2023-01-15T02:40:36.400Z,99970.53
2023-01-15T02:43:05.802Z,99978.47
2023-01-15T02:45:39.507Z,99969.88
2023-01-15T02:48:11.383Z,99978.56
2023-01-15T02:50:43.788Z,99969.03
2023-01-15T02:53:14.751Z,99965.66
2023-01-15T02:55:44.740Z,99968.28
2023-01-15T02:58:16.285Z,99961.31
2023-01-15T03:00:46.570Z,99965.75
2023-01-15T03:03:28.098Z,99961.38
2023-01-15T03:06:02.150Z,99962.31
2023-01-15T03:08:28.999Z,99958.19
2023-01-15T03:11:02.586Z,99953.72
2023-01-15T03:13:43.314Z,99958.94
2023-01-15T03:16:33.258Z,99953.53
2023-01-15T03:19:05.551Z,99952.91
2023-01-15T03:21:41.560Z,99959.88
2023-01-15T03:24:11.404Z,99965.19
2023-01-15T03:26:37.986Z,99966.88
2023-01-15T03:29:07.471Z,99961.56
2023-01-15T03:31:35.266Z,99961.66
2023-01-15T03:34:02.509Z,99960.78
2023-01-15T03:36:28.922Z,99957.44
2023-01-15T03:38:55.483Z,99952.22
2023-01-15T03:41:34.317Z,99946.09
2023-01-15T03:44:30.023Z,99954.75
2023-01-15T03:47:21.058Z,99951.38
2023-01-15T03:50:04.869Z,99959.41
2023-01-15T03:52:47.971Z,99967.50
2023-01-15T03:55:19.226Z,99955.19
2023-01-15T03:57:58.865Z,99956.13
2023-01-15T04:00:36.068Z,99943.97
2023-01-15T04:03:07.125Z,99947.34
2023-01-15T04:05:35.587Z,99943.16
2023-01-15T04:08:03.293Z,99951.09
2023-01-15T04:10:29.640Z,99939.88
2023-01-15T04:12:56.059Z,99945.88
2023-01-15T04:15:22.552Z,99949.31
2023-01-15T04:17:48.901Z,99947.56
2023-01-15T04:20:15.476Z,99947.56
2023-01-15T04:22:42.022Z,99954.44
2023-01-15T04:25:09.028Z,99948.47
2023-01-15T04:27:35.527Z,99944.19
2023-01-15T04:30:02.160Z,99945.88
2023-01-15T04:32:28.531Z,99947.56
2023-01-15T04:34:55.031Z,99941.47
2023-01-15T04:37:21.451Z,99934.66
2023-01-15T04:39:47.882Z,99938.13
2023-01-15T04:42:33.638Z,99933.06
2023-01-15T04:44:59.998Z,99939.97
2023-01-15T04:47:26.380Z,99935.78
2023-01-15T04:49:52.765Z,99948.91
2023-01-15T04:52:19.464Z,99936.69
2023-01-15T04:54:45.951Z,99936.88
2023-01-15T04:57:12.464Z,99939.59
2023-01-15T04:59:38.850Z,99938.72
2023-01-15T05:02:06.790Z,99946.47
2023-01-15T05:04:34.320Z,99932.59
2023-01-15T05:07:02.805Z,99942.22
2023-01-15T05:09:29.409Z,99943.03
2023-01-15T05:11:55.843Z,99944.88
2023-01-15T05:14:22.333Z,99943.19
2023-01-15T05:16:48.757Z,99948.41
2023-01-15T05:19:15.105Z,99935.38
2023-01-15T05:21:44.053Z,99938.72
2023-01-15T05:24:14.646Z,99936.97
2023-01-15T05:26:41.487Z,99929.31
2023-01-15T05:29:08.149Z,99930.13
2023-01-15T05:31:34.681Z,99927.63
2023-01-15T05:34:01.469Z,99931.09
2023-01-15T05:36:30.907Z,99929.50
2023-01-15T05:39:01.394Z,99929.50
2023-01-15T05:41:47.113Z,99924.34
2023-01-15T05:44:14.153Z,99921.00
2023-01-15T05:46:42.467Z,99908.88
2023-01-15T05:49:12.082Z,99918.41
2023-01-15T05:51:39.815Z,99914.28
2023-01-15T05:54:08.787Z,99923.03
2023-01-15T05:56:36.993Z,99916.13
2023-01-15T05:59:03.808Z,99933.72
2023-01-15T06:01:30.597Z,99932.91
2023-01-15T06:04:01.716Z,99935.50
2023-01-15T06:06:28.770Z,99933.91
2023-01-15T06:08:55.364Z,99930.53
2023-01-15T06:11:21.918Z,99931.31
2023-01-15T06:13:48.481Z,99926.91
2023-01-15T06:16:15.311Z,99920.88
2023-01-15T06:18:42.659Z,99929.53
2023-01-15T06:21:13.165Z,99939.41
2023-01-15T06:23:40.659Z,99941.09
2023-01-15T06:26:11.323Z,99940.31
2023-01-15T06:28:37.794Z,99950.13
2023-01-15T06:31:09.260Z,99961.72
2023-01-15T06:33:36.021Z,99964.66
2023-01-15T06:36:04.423Z,99957.13
2023-01-15T06:38:31.481Z,99977.31
2023-01-15T06:41:02.524Z,99958.63
2023-01-15T06:43:47.742Z,99954.38
2023-01-15T06:46:34.518Z,99955.38
2023-01-15T06:49:00.964Z,99950.16
2023-01-15T06:51:29.118Z,99950.16
2023-01-15T06:53:56.584Z,99955.38
2023-01-15T06:56:22.991Z,99956.34
2023-01-15T06:58:50.021Z,99952.97
2023-01-15T07:01:16.485Z,99950.94
2023-01-15T07:03:42.944Z,99944.03
2023-01-15T07:06:11.721Z,99946.81
2023-01-15T07:08:38.939Z,99950.16
2023-01-15T07:11:07.315Z,99955.56
2023-01-15T07:13:34.387Z,99952.88
2023-01-15T07:16:01.851Z,99951.84
2023-01-15T07:18:30.159Z,99953.88
2023-01-15T07:20:57.648Z,99951.47
2023-01-15T07:23:26.083Z,99948.06
2023-01-15T07:25:53.907Z,99949.19
2023-01-15T07:28:21.488Z,99957.00
2023-01-15T07:30:47.958Z,99961.44
2023-01-15T07:33:14.834Z,99953.72
2023-01-15T07:35:41.267Z,99951.19
2023-01-15T07:38:07.743Z,99946.91
2023-01-15T07:40:34.067Z,99951.38
2023-01-15T07:43:18.821Z,99948.75
2023-01-15T07:46:03.551Z,99967.84
2023-01-15T07:48:49.137Z,99954.03
2023-01-15T07:51:15.584Z,99945.47
2023-01-15T07:53:42.008Z,99946.31
2023-01-15T07:56:09.061Z,99939.41
2023-01-15T07:58:35.475Z,99946.41
2023-01-15T08:01:02.145Z,99930.84
2023-01-15T08:03:29.190Z,99936.88
2023-01-15T08:05:56.915Z,99947.41
2023-01-15T08:08:23.519Z,99948.16
2023-01-15T08:11:08.446Z,99934.28
2023-01-15T08:13:53.257Z,99943.69
2023-01-15T08:16:20.196Z,99952.44
2023-01-15T08:18:46.799Z,99942.78
2023-01-15T08:21:15.484Z,99945.97
2023-01-15T08:23:43.339Z,99955.81
2023-01-15T08:26:09.721Z,99955.03
2023-01-15T08:28:36.056Z,99950.75
2023-01-15T08:31:02.394Z,99945.63
2023-01-15T08:33:28.733Z,99939.41
2023-01-15T08:35:57.112Z,99941.91
2023-01-15T08:38:23.570Z,99949.00
2023-01-15T08:40:59.880Z,99942.94
2023-01-15T08:43:33.261Z,99938.47
2023-01-15T08:46:01.179Z,99933.88
2023-01-15T08:48:29.948Z,99937.06
2023-01-15T08:50:56.521Z,99938.75
2023-01-15T08:53:24.279Z,99931.59
2023-01-15T08:55:51.087Z,99936.72
2023-01-15T08:58:17.611Z,99933.19
2023-01-15T09:00:44.019Z,99921.84
2023-01-15T09:03:10.367Z,99933.00
2023-01-15T09:05:37.886Z,99929.50
2023-01-15T09:08:05.638Z,99937.31
2023-01-15T09:10:32.148Z,99944.22
2023-01-15T09:13:00.360Z,99945.03
2023-01-15T09:15:28.566Z,99944.94
2023-01-15T09:17:55.741Z,99939.81
2023-01-15T09:20:22.418Z,99940.69
2023-01-15T09:22:49.164Z,99936.09
2023-01-15T09:25:16.704Z,99944.66
2023-01-15T09:27:43.306Z,99943.63
2023-01-15T09:30:30.263Z,99948.63
2023-01-15T09:32:56.785Z,99944.13
2023-01-15T09:35:23.408Z,99942.28
2023-01-15T09:37:53.477Z,99945.47
2023-01-15T09:40:57.206Z,99925.38
2023-01-15T09:43:50.482Z,99939.25
2023-01-15T09:46:23.651Z,99940.00
2023-01-15T09:49:35.458Z,99951.28
2023-01-15T09:52:25.252Z,99938.06
2023-01-15T09:55:16.191Z,99943.34
2023-01-15T09:57:46.219Z,99934.69
2023-01-15T10:00:21.850Z,99947.66
2023-01-15T10:03:12.941Z,99944.22
2023-01-15T10:05:57.743Z,99945.06
2023-01-15T10:08:29.127Z,99944.94
2023-01-15T10:11:02.599Z,99932.56
2023-01-15T10:13:37.687Z,99931.41
2023-01-15T10:16:04.667Z,99928.41
2023-01-15T10:18:31.364Z,99928.06
2023-01-15T10:21:16.074Z,99934.78
2023-01-15T10:24:07.323Z,99939.50
2023-01-15T10:26:40.580Z,99940.81
2023-01-15T10:29:24.521Z,99941.56
2023-01-15T10:31:53.379Z,99950.78
2023-01-15T10:34:56.296Z,99949.78
2023-01-15T10:37:42.097Z,99950.53
2023-01-15T10:40:18.764Z,99950.63
2023-01-15T10:43:33.455Z,99940.44
2023-01-15T10:46:01.873Z,99949.50
2023-01-15T10:48:39.590Z,99947.91
2023-01-15T10:51:26.877Z,99939.22
2023-01-15T10:54:10.303Z,99959.03
2023-01-15T10:56:52.009Z,99968.44
2023-01-15T10:59:27.876Z,99971.78
2023-01-15T11:01:55.805Z,99970.09
2023-01-15T11:04:23.037Z,99952.78
2023-01-15T11:06:49.530Z,99964.88
2023-01-15T11:09:20.433Z,99952.59
2023-01-15T11:12:00.974Z,99973.38
2023-01-15T11:15:21.820Z,99952.38
2023-01-15T11:18:07.833Z,99961.19
2023-01-15T11:20:44.310Z,99949.03
2023-01-15T11:23:14.464Z,99954.19
2023-01-15T11:25:50.596Z,99958.56
2023-01-15T11:28:19.405Z,99950.72
2023-01-15T11:30:54.672Z,99951.75
2023-01-15T11:33:27.883Z,99951.66
2023-01-15T11:35:59.730Z,99958.63
2023-01-15T11:38:29.244Z,99970.88
2023-01-15T11:40:59.678Z,99965.53
2023-01-15T11:43:49.307Z,99955.97
2023-01-15T11:46:48.962Z,99960.31
2023-01-15T11:49:39.362Z,99959.66
2023-01-15T11:52:11.542Z,99956.41
2023-01-15T11:54:42.348Z,99959.94
2023-01-15T11:57:10.839Z,99971.97
2023-01-15T11:59:37.773Z,99948.63
2023-01-15T12:02:17.058Z,99963.38
2023-01-15T12:04:58.225Z,99968.59
2023-01-15T12:07:26.648Z,99969.63
2023-01-15T12:10:18.208Z,99953.13
2023-01-15T12:13:04.988Z,99954.81
2023-01-15T12:15:51.443Z,99943.50
2023-01-15T12:18:45.421Z,99948.72
2023-01-15T12:21:40.245Z,99957.78
2023-01-15T12:24:18.193Z,99945.91
2023-01-15T12:27:12.585Z,99956.44
2023-01-15T12:29:48.939Z,99955.88
2023-01-15T12:32:22.567Z,99965.16
2023-01-15T12:34:57.987Z,99943.78
2023-01-15T12:37:28.884Z,99955.41
2023-01-15T12:40:07.386Z,99979.97
2023-01-15T12:42:55.376Z,99963.75
2023-01-15T12:45:27.084Z,99968.19
2023-01-15T12:48:12.184Z,99973.41
2023-01-15T12:50:46.544Z,99968.97
2023-01-15T12:53:22.017Z,99964.84
2023-01-15T12:55:56.187Z,99971.09
2023-01-15T12:58:26.477Z,99961.66
2023-01-15T13:01:04.228Z,99958.38
2023-01-15T13:03:48.047Z,99963.50
2023-01-15T13:06:16.935Z,99969.72
2023-01-15T13:09:04.108Z,99971.31
2023-01-15T13:11:30.605Z,99964.41
2023-01-15T13:13:59.915Z,99969.63
2023-01-15T13:16:47.636Z,99971.22
2023-01-15T13:19:46.477Z,99972.81
2023-01-15T13:22:22.093Z,99971.09
2023-01-15T13:24:51.374Z,99973.41
2023-01-15T13:27:24.300Z,99983.84
2023-01-15T13:29:57.966Z,99980.31
2023-01-15T13:32:29.528Z,99987.22
2023-01-15T13:35:11.057Z,99981.91
2023-01-15T13:37:44.481Z,99972.44
2023-01-15T13:40:32.863Z,99974.28
2023-01-15T13:42:59.521Z,99977.72
2023-01-15T13:45:42.359Z,99989.75
2023-01-15T13:48:16.146Z,99993.03
2023-01-15T13:50:54.062Z,99992.09
2023-01-15T13:53:34.430Z,99992.94
2023-01-15T13:56:07.770Z,100004.06
2023-01-15T13:58:37.987Z,99994.38
2023-01-15T14:01:22.399Z,99995.31
2023-01-15T14:04:06.987Z,100004.25
2023-01-15T14:06:41.632Z,100003.38
2023-01-15T14:09:31.933Z,100004.25
2023-01-15T14:12:17.500Z,100003.38
2023-01-15T14:14:46.829Z,100005.16
2023-01-15T14:17:48.927Z,100010.47
2023-01-15T14:20:47.951Z,100003.66
2023-01-15T14:23:26.045Z,100008.00
2023-01-15T14:26:17.209Z,100015.00
2023-01-15T14:29:22.360Z,100011.47
2023-01-15T14:32:15.063Z,100007.94
2023-01-15T14:34:41.915Z,100015.09
2023-01-15T14:37:17.301Z,100015.16
2023-01-15T14:39:48.796Z,100025.19
2023-01-15T14:42:51.473Z,100028.13
2023-01-15T14:45:30.688Z,100038.56
2023-01-15T14:48:02.449Z,100037.56
2023-01-15T14:50:42.239Z,100052.19
2023-01-15T14:53:11.777Z,100045.28
2023-01-15T14:55:46.343Z,100044.47
2023-01-15T14:58:34.299Z,100045.22
2023-01-15T15:01:17.244Z,100048.56
2023-01-15T15:03:51.348Z,100057.09
2023-01-15T15:06:18.445Z,100053.56
2023-01-15T15:08:46.083Z,100064.00
2023-01-15T15:11:42.777Z,100062.13
2023-01-15T15:14:13.819Z,100057.84
2023-01-15T15:16:48.227Z,100067.19
2023-01-15T15:19:27.553Z,100072.41
2023-01-15T15:21:57.569Z,100072.41
2023-01-15T15:24:35.072Z,100065.34
2023-01-15T15:27:22.076Z,100063.66
2023-01-15T15:29:48.821Z,100051.63
2023-01-15T15:32:24.907Z,100068.28
2023-01-15T15:34:53.627Z,100069.22
2023-01-15T15:37:24.808Z,100067.44
2023-01-15T15:39:57.482Z,100075.13
2023-01-15T15:42:50.893Z,100074.25
2023-01-15T15:45:38.846Z,100071.50
2023-01-15T15:48:32.846Z,100088.16
2023-01-15T15:50:59.944Z,100085.56
2023-01-15T15:53:26.459Z,100095.13
2023-01-15T15:55:54.937Z,100096.91
2023-01-15T15:58:36.390Z,100100.34
2023-01-15T16:01:03.389Z,100091.78
2023-01-15T16:03:33.178Z,100097.13
2023-01-15T16:06:03.166Z,100099.00
2023-01-15T16:08:31.520Z,100100.94
2023-01-15T16:11:01.201Z,100109.75
2023-01-15T16:13:47.475Z,100098.56
2023-01-15T16:16:16.652Z,100116.06
2023-01-15T16:18:45.572Z,100111.75
2023-01-15T16:21:22.245Z,100109.13
2023-01-15T16:24:02.658Z,100130.91
2023-01-15T16:26:37.789Z,100129.47
2023-01-15T16:29:06.900Z,100141.84
2023-01-15T16:31:35.577Z,100137.53
2023-01-15T16:34:03.063Z,100144.53
2023-01-15T16:36:39.236Z,100166.69
2023-01-15T16:39:07.099Z,100156.59
2023-01-15T16:41:42.135Z,100157.31
2023-01-15T16:44:25.587Z,100149.81
2023-01-15T16:47:00.316Z,100144.50
2023-01-15T16:49:30.160Z,100144.63
2023-01-15T16:51:58.729Z,100137.72
2023-01-15T16:54:30.833Z,100140.97
2023-01-15T16:57:02.191Z,100155.47
2023-01-15T16:59:28.546Z,100133.22
2023-01-15T17:01:57.261Z,100135.59
2023-01-15T17:04:42.374Z,100127.84
2023-01-15T17:07:18.295Z,100134.16
2023-01-15T17:09:49.716Z,100136.59
2023-01-15T17:12:34.263Z,100130.50
2023-01-15T17:15:15.917Z,100131.88
2023-01-15T17:17:43.918Z,100130.66
2023-01-15T17:20:12.653Z,100133.13
2023-01-15T17:22:42.066Z,100130.34
2023-01-15T17:25:23.977Z,100139.69
2023-01-15T17:27:50.401Z,100147.59
2023-01-15T17:30:17.572Z,100150.19
2023-01-15T17:32:43.952Z,100144.00
2023-01-15T17:35:28.868Z,100145.84
2023-01-15T17:37:55.259Z,100152.81
2023-01-15T17:40:21.731Z,100142.31
2023-01-15T17:42:48.554Z,100137.88
2023-01-15T17:45:26.819Z,100137.88
2023-01-15T17:47:53.380Z,100152.69
2023-01-15T17:50:20.061Z,100139.56
2023-01-15T17:52:46.718Z,100155.97
2023-01-15T17:55:34.531Z,100151.59
2023-01-15T17:58:19.423Z,100152.50
2023-01-15T18:01:05.360Z,100144.91
2023-01-15T18:03:51.355Z,100150.13
2023-01-15T18:06:19.928Z,100158.94
2023-01-15T18:08:52.309Z,100155.50
2023-01-15T18:11:19.079Z,100149.38
2023-01-15T18:13:45.447Z,100158.88
2023-01-15T18:16:11.998Z,100164.09
2023-01-15T18:18:38.702Z,100144.16
2023-01-15T18:21:05.251Z,100159.78
2023-01-15T18:23:34.363Z,100144.28
2023-01-15T18:26:04.527Z,100139.88
2023-01-15T18:28:32.013Z,100146.16
2023-01-15T18:30:58.409Z,100148.69
2023-01-15T18:33:24.883Z,100143.63
2023-01-15T18:35:51.319Z,100140.31
2023-01-15T18:38:17.693Z,100149.06
2023-01-15T18:40:44.036Z,100154.19
2023-01-15T18:43:29.119Z,100139.47
2023-01-15T18:46:33.844Z,100134.94
2023-01-15T18:49:00.267Z,100145.38
2023-01-15T18:51:26.696Z,100147.22
2023-01-15T18:53:53.072Z,100137.56
2023-01-15T18:56:38.889Z,100144.63
2023-01-15T18:59:07.759Z,100142.31
2023-01-15T19:01:35.062Z,100147.53
2023-01-15T19:04:01.974Z,100134.34
2023-01-15T19:06:28.438Z,100140.31
2023-01-15T19:08:54.750Z,100135.19
2023-01-15T19:11:21.116Z,100138.78
2023-01-15T19:14:07.442Z,100147.53
2023-01-15T19:16:52.293Z,100149.34
2023-01-15T19:19:18.663Z,100143.31
2023-01-15T19:21:46.643Z,100138.09
2023-01-15T19:24:13.873Z,100139.09
2023-01-15T19:26:40.327Z,100133.88
2023-01-15T19:29:06.958Z,100133.88
2023-01-15T19:31:37.217Z,100137.38
2023-01-15T19:34:32.179Z,100134.00
2023-01-15T19:36:54.538Z,100130.66
2023-01-15T19:39:21.235Z,100125.34
2023-01-15T19:42:05.947Z,100117.75
2023-01-15T19:44:51.039Z,100117.75
2023-01-15T19:47:56.327Z,100111.56
2023-01-15T19:50:30.129Z,100121.22
2023-01-15T19:52:56.591Z,100121.31
2023-01-15T19:55:24.676Z,100120.53
2023-01-15T19:57:59.543Z,100115.53
2023-01-15T20:00:27.073Z,100115.53
2023-01-15T20:02:54.939Z,100104.19
2023-01-15T20:05:21.459Z,100094.47
2023-01-15T20:07:47.864Z,100098.00
2023-01-15T20:10:17.168Z,100097.16
2023-01-15T20:13:02.144Z,100097.25
2023-01-15T20:15:29.330Z,100084.34
2023-01-15T20:17:56.993Z,100087.75
2023-01-15T20:20:24.544Z,100086.19
2023-01-15T20:22:51.165Z,100084.44
2023-01-15T20:25:17.794Z,100080.75
2023-01-15T20:27:44.322Z,100075.47
2023-01-15T20:30:15.143Z,100069.53
2023-01-15T20:32:43.869Z,100072.19
2023-01-15T20:35:13.463Z,100076.56
2023-01-15T20:37:39.971Z,100069.72
2023-01-15T20:40:07.047Z,100064.53
2023-01-15T20:42:53.036Z,100070.56
2023-01-15T20:45:19.469Z,100067.75
2023-01-15T20:48:04.602Z,100054.81
2023-01-15T20:50:33.934Z,100052.81
2023-01-15T20:53:00.827Z,100056.13
2023-01-15T20:55:38.879Z,100049.13
2023-01-15T20:58:12.239Z,100040.41
2023-01-15T21:00:38.674Z,100032.00
2023-01-15T21:03:05.966Z,100031.06
2023-01-15T21:05:32.357Z,100030.28
2023-01-15T21:07:58.920Z,100033.69
2023-01-15T21:10:25.561Z,100030.16
2023-01-15T21:12:53.222Z,100027.56
2023-01-15T21:15:20.213Z,100029.38
2023-01-15T21:17:47.254Z,100021.41
2023-01-15T21:20:15.213Z,100013.59
2023-01-15T21:22:42.151Z,100015.19
2023-01-15T21:25:13.286Z,100011.78
2023-01-15T21:27:39.840Z,100016.06
2023-01-15T21:30:07.734Z,100019.41
2023-01-15T21:32:34.223Z,100009.84
2023-01-15T21:35:00.588Z,100008.84
2023-01-15T21:37:27.102Z,99994.91
2023-01-15T21:39:53.502Z,99993.94
2023-01-15T21:42:40.833Z,99996.44
2023-01-15T21:45:08.251Z,99984.16
2023-01-15T21:47:36.825Z,99981.56
2023-01-15T21:50:05.282Z,99981.50
2023-01-15T21:52:33.599Z,99969.31
2023-01-15T21:55:00.488Z,99961.50
2023-01-15T21:57:29.347Z,99957.06
2023-01-15T21:59:56.002Z,99952.00
2023-01-15T22:02:23.589Z,99941.66
2023-01-15T22:04:50.418Z,99944.19
2023-01-15T22:07:18.226Z,99939.84
2023-01-15T22:09:45.045Z,99935.44
2023-01-15T22:12:12.883Z,99924.84
2023-01-15T22:14:39.449Z,99930.06
2023-01-15T22:17:06.447Z,99924.84
2023-01-15T22:19:33.407Z,99913.53
2023-01-15T22:22:02.595Z,99910.78
2023-01-15T22:24:31.127Z,99909.09
2023-01-15T22:26:57.859Z,99906.47
2023-01-15T22:29:44.526Z,99913.38
2023-01-15T22:32:13.244Z,99895.16
2023-01-15T22:34:39.982Z,99898.50
2023-01-15T22:37:06.468Z,99894.97
2023-01-15T22:39:33.121Z,99889.00
2023-01-15T22:42:18.200Z,99888.06
2023-01-15T22:44:45.119Z,99885.47
2023-01-15T22:47:12.221Z,99873.22
2023-01-15T22:49:38.659Z,99869.69
2023-01-15T22:52:05.192Z,99858.41
2023-01-15T22:54:31.627Z,99858.41
2023-01-15T22:56:58.035Z,99852.38
2023-01-15T22:59:24.583Z,99846.97
2023-01-15T23:01:51.231Z,99846.97
2023-01-15T23:04:23.172Z,99843.63
2023-01-15T23:06:51.643Z,99838.50
2023-01-15T23:09:19.841Z,99832.28
2023-01-15T23:11:46.357Z,99828.75
2023-01-15T23:14:15.703Z,99826.16
2023-01-15T23:16:42.958Z,99823.53
2023-01-15T23:19:09.843Z,99821.69
2023-01-15T23:21:36.304Z,99823.38
2023-01-15T23:24:02.929Z,99811.28
2023-01-15T23:26:32.303Z,99805.31
2023-01-15T23:28:59.306Z,99802.78
2023-01-15T23:31:27.738Z,99807.16
2023-01-15T23:33:54.428Z,99802.69
2023-01-15T23:36:21.257Z,99799.16
2023-01-15T23:38:47.879Z,99796.75
2023-01-15T23:41:17.158Z,99790.59
2023-01-15T23:44:02.315Z,99785.38
2023-01-15T23:46:32.985Z,99782.84
2023-01-15T23:49:00.610Z,99769.75
2023-01-15T23:51:27.191Z,99770.59
2023-01-15T23:53:53.679Z,99784.63
2023-01-15T23:56:20.109Z,99778.75
2023-01-15T23:58:47.252Z,99777.16
